Vancleave, Mississippi
Current Conditions -  °F | °C
As of 3:58 AM on Wednesday 26 Nov 2014 (Local Time) from KBIX Reporting Station
Clear Clear  
Wind Chill: 36°   Ceiling: Unl
Heat Index: 40°   Visibility: 10mi
Dew Point: 32°   Wind: 6mph
Humidity: 72%   Direction: 330°NNW
Pressure: 30.19"   Gusts: NA
Location:  30.5758°N, 88.7489°W
Report Text: KBIX 260958Z AUTO 33005KT 10SM CLR 05/00 A3019 RMK AO2 SLP226 T00460000
Loading
Personal Weather Stations






























Interactive Weather Map New forecast layout! Learn more

10-Day Weather Forecast

Advertisements
Track Severe Weather on mobile